METAR Data
IDs: Format: Raw Decoded Include TAF

Data at: 2033 UTC 01 Oct 2022

METAR for:EKRN (Ronne/Bornholm Arpt, HO, DK)
Text:EKRN 012020Z AUTO 29018KT 9999 SCT015/// BKN060/// 13/10 Q1001
Temperature: 13.0°C ( 55°F)
Dewpoint: 10.0°C ( 50°F) [RH = 82%]
Pressure (altimeter):29.56 inches Hg (1001.0 mb)
Winds:from the WNW (290 degrees) at 21 MPH (18 knots; 9.3 m/s)
Visibility:6 or more sm (10+ km)
Ceiling:6000 feet AGL
Clouds: scattered clouds at 1500 feet AGL, broken clouds at 6000 feet AGL
Text:EKRN 011950Z AUTO 28018KT 9999 BKN014/// 13/10 Q1000
Temperature: 13.0°C ( 55°F)
Dewpoint: 10.0°C ( 50°F) [RH = 82%]
Pressure (altimeter):29.53 inches Hg (1000.0 mb)
Winds:from the W (280 degrees) at 21 MPH (18 knots; 9.3 m/s)
Visibility:6 or more sm (10+ km)
Ceiling:1400 feet AGL
Clouds: broken clouds at 1400 feet AGL
Text:EKRN 011920Z AUTO 27018KT 9999 FEW012/// SCT013/// BKN040/// BKN110/// 13/11 Q1000
Temperature: 13.0°C ( 55°F)
Dewpoint: 11.0°C ( 52°F) [RH = 88%]
Pressure (altimeter):29.53 inches Hg (1000.0 mb)
Winds:from the W (270 degrees) at 21 MPH (18 knots; 9.3 m/s)
Visibility:6 or more sm (10+ km)
Ceiling:4000 feet AGL
Clouds: few clouds at 1200 feet AGL, scattered clouds at 1300 feet AGL, broken clouds at 4000 feet AGL, broken clouds at 11000 feet AGL
Text:EKRN 011850Z AUTO 21015G27KT 190V250 6000 RA BKN012/// BKN043/// 13/12 Q0999
Temperature: 13.0°C ( 55°F)
Dewpoint: 12.0°C ( 54°F) [RH = 94%]
Pressure (altimeter):29.50 inches Hg ( 999.0 mb)
Winds:from the SSW (210 degrees) at 17 MPH (15 knots; 7.7 m/s) gusting to 31 MPH (27 knots; 13.9 m/s)
Visibility: 4 sm ( 6 km)
Ceiling:1200 feet AGL
Clouds: broken clouds at 1200 feet AGL, broken clouds at 4300 feet AGL
Weather:RA (moderate rain)
Text:EKRN 011820Z AUTO 21016G28KT 180V240 9999 BKN011/// BKN041/// 13/11 Q0999
Temperature: 13.0°C ( 55°F)
Dewpoint: 11.0°C ( 52°F) [RH = 88%]
Pressure (altimeter):29.50 inches Hg ( 999.0 mb)
Winds:from the SSW (210 degrees) at 18 MPH (16 knots; 8.2 m/s) gusting to 32 MPH (28 knots; 14.4 m/s)
Visibility:6 or more sm (10+ km)
Ceiling:1100 feet AGL
Clouds: broken clouds at 1100 feet AGL, broken clouds at 4100 feet AGL
Text:EKRN 011750Z AUTO 20016KT 9999 -RA OVC010/// 13/11 Q0999
Temperature: 13.0°C ( 55°F)
Dewpoint: 11.0°C ( 52°F) [RH = 88%]
Pressure (altimeter):29.50 inches Hg ( 999.0 mb)
Winds:from the SSW (200 degrees) at 18 MPH (16 knots; 8.2 m/s)
Visibility:6 or more sm (10+ km)
Ceiling:1000 feet AGL
Clouds: overcast cloud deck at 1000 feet AGL
Weather:-RA (light rain)
Text:EKRN 011720Z AUTO 19017KT 9999 OVC011/// 13/10 Q0999
Temperature: 13.0°C ( 55°F)
Dewpoint: 10.0°C ( 50°F) [RH = 82%]
Pressure (altimeter):29.50 inches Hg ( 999.0 mb)
Winds:from the S (190 degrees) at 20 MPH (17 knots; 8.7 m/s)
Visibility:6 or more sm (10+ km)
Ceiling:1100 feet AGL
Clouds: overcast cloud deck at 1100 feet AGL
Text:EKRN 011650Z AUTO 19017KT 9999 -RA OVC010/// 12/11 Q1000
Temperature: 12.0°C ( 54°F)
Dewpoint: 11.0°C ( 52°F) [RH = 94%]
Pressure (altimeter):29.53 inches Hg (1000.0 mb)
Winds:from the S (190 degrees) at 20 MPH (17 knots; 8.7 m/s)
Visibility:6 or more sm (10+ km)
Ceiling:1000 feet AGL
Clouds: overcast cloud deck at 1000 feet AGL
Weather:-RA (light rain)
Text:EKRN 011620Z AUTO 19017KT 9999 -RA OVC010/// 12/10 Q1000
Temperature: 12.0°C ( 54°F)
Dewpoint: 10.0°C ( 50°F) [RH = 88%]
Pressure (altimeter):29.53 inches Hg (1000.0 mb)
Winds:from the S (190 degrees) at 20 MPH (17 knots; 8.7 m/s)
Visibility:6 or more sm (10+ km)
Ceiling:1000 feet AGL
Clouds: overcast cloud deck at 1000 feet AGL
Weather:-RA (light rain)
Text:EKRN 011550Z AUTO 19018KT 9999 -RA OVC009/// 12/10 Q1000
Temperature: 12.0°C ( 54°F)
Dewpoint: 10.0°C ( 50°F) [RH = 88%]
Pressure (altimeter):29.53 inches Hg (1000.0 mb)
Winds:from the S (190 degrees) at 21 MPH (18 knots; 9.3 m/s)
Visibility:6 or more sm (10+ km)
Ceiling:900 feet AGL
Clouds: overcast cloud deck at 900 feet AGL
Weather:-RA (light rain)
Text:EKRN 011520Z AUTO 18021KT 9999 -RA BKN012/// OVC047/// 12/10 Q1000
Temperature: 12.0°C ( 54°F)
Dewpoint: 10.0°C ( 50°F) [RH = 88%]
Pressure (altimeter):29.53 inches Hg (1000.0 mb)
Winds:from the S (180 degrees) at 24 MPH (21 knots; 10.8 m/s)
Visibility:6 or more sm (10+ km)
Ceiling:1200 feet AGL
Clouds: broken clouds at 1200 feet AGL, overcast cloud deck at 4700 feet AGL
Weather:-RA (light rain)
Text:EKRN 011450Z AUTO 18020KT 9999 -RA BKN012/// OVC046/// 12/10 Q1001 RERA
Temperature: 12.0°C ( 54°F)
Dewpoint: 10.0°C ( 50°F) [RH = 88%]
Pressure (altimeter):29.56 inches Hg (1001.0 mb)
Winds:from the S (180 degrees) at 23 MPH (20 knots; 10.3 m/s)
Visibility:6 or more sm (10+ km)
Ceiling:1200 feet AGL
Clouds: broken clouds at 1200 feet AGL, overcast cloud deck at 4600 feet AGL
Weather:-RA (light rain)
Text:EKRN 011420Z AUTO 18020KT 9999 RA OVC014/// 12/10 Q1001
Temperature: 12.0°C ( 54°F)
Dewpoint: 10.0°C ( 50°F) [RH = 88%]
Pressure (altimeter):29.56 inches Hg (1001.0 mb)
Winds:from the S (180 degrees) at 23 MPH (20 knots; 10.3 m/s)
Visibility:6 or more sm (10+ km)
Ceiling:1400 feet AGL
Clouds: overcast cloud deck at 1400 feet AGL
Weather:RA (moderate rain)
Text:EKRN 011350Z AUTO 18019KT 9999 -RA OVC017/// 12/10 Q1001
Temperature: 12.0°C ( 54°F)
Dewpoint: 10.0°C ( 50°F) [RH = 88%]
Pressure (altimeter):29.56 inches Hg (1001.0 mb)
Winds:from the S (180 degrees) at 22 MPH (19 knots; 9.8 m/s)
Visibility:6 or more sm (10+ km)
Ceiling:1700 feet AGL
Clouds: overcast cloud deck at 1700 feet AGL
Weather:-RA (light rain)
Text:EKRN 011320Z AUTO 18019KT 9999 -RA OVC021/// 12/09 Q1002
Temperature: 12.0°C ( 54°F)
Dewpoint: 9.0°C ( 48°F) [RH = 82%]
Pressure (altimeter):29.59 inches Hg (1002.0 mb)
Winds:from the S (180 degrees) at 22 MPH (19 knots; 9.8 m/s)
Visibility:6 or more sm (10+ km)
Ceiling:2100 feet AGL
Clouds: overcast cloud deck at 2100 feet AGL
Weather:-RA (light rain)
Text:EKRN 011250Z AUTO 18020KT 9999 -DZ SCT021/// BKN048/// 13/09 Q1002
Temperature: 13.0°C ( 55°F)
Dewpoint: 9.0°C ( 48°F) [RH = 77%]
Pressure (altimeter):29.59 inches Hg (1002.0 mb)
Winds:from the S (180 degrees) at 23 MPH (20 knots; 10.3 m/s)
Visibility:6 or more sm (10+ km)
Ceiling:4800 feet AGL
Clouds: scattered clouds at 2100 feet AGL, broken clouds at 4800 feet AGL
Weather:-DZ (light drizzle)
Text:EKRN 011220Z AUTO 18019KT 9999 SCT022/// BKN084/// BKN093/// 13/09 Q1002
Temperature: 13.0°C ( 55°F)
Dewpoint: 9.0°C ( 48°F) [RH = 77%]
Pressure (altimeter):29.59 inches Hg (1002.0 mb)
Winds:from the S (180 degrees) at 22 MPH (19 knots; 9.8 m/s)
Visibility:6 or more sm (10+ km)
Ceiling:8400 feet AGL
Clouds: scattered clouds at 2200 feet AGL, broken clouds at 8400 feet AGL, broken clouds at 9300 feet AGL
Text:EKRN 011150Z AUTO 18018KT 9999 FEW022/// BKN120/// 13/08 Q1002
Temperature: 13.0°C ( 55°F)
Dewpoint: 8.0°C ( 46°F) [RH = 72%]
Pressure (altimeter):29.59 inches Hg (1002.0 mb)
Winds:from the S (180 degrees) at 21 MPH (18 knots; 9.3 m/s)
Visibility:6 or more sm (10+ km)
Ceiling:12000 feet AGL
Clouds: few clouds at 2200 feet AGL, broken clouds at 12000 feet AGL
Text:EKRN 011120Z AUTO 18018KT 9999 FEW021/// BKN140/// 14/08 Q1003
Temperature: 14.0°C ( 57°F)
Dewpoint: 8.0°C ( 46°F) [RH = 67%]
Pressure (altimeter):29.62 inches Hg (1003.0 mb)
Winds:from the S (180 degrees) at 21 MPH (18 knots; 9.3 m/s)
Visibility:6 or more sm (10+ km)
Ceiling:14000 feet AGL
Clouds: few clouds at 2100 feet AGL, broken clouds at 14000 feet AGL
Text:EKRN 011050Z AUTO 17017KT 9999 BKN120/// 14/09 Q1003
Temperature: 14.0°C ( 57°F)
Dewpoint: 9.0°C ( 48°F) [RH = 72%]
Pressure (altimeter):29.62 inches Hg (1003.0 mb)
Winds:from the S (170 degrees) at 20 MPH (17 knots; 8.7 m/s)
Visibility:6 or more sm (10+ km)
Ceiling:12000 feet AGL
Clouds: broken clouds at 12000 feet AGL
Text:EKRN 011020Z AUTO 17017KT 9999 NCD 14/09 Q1003
Temperature: 14.0°C ( 57°F)
Dewpoint: 9.0°C ( 48°F) [RH = 72%]
Pressure (altimeter):29.62 inches Hg (1003.0 mb)
Winds:from the S (170 degrees) at 20 MPH (17 knots; 8.7 m/s)
Visibility:6 or more sm (10+ km)
Ceiling:at least 12,000 feet AGL
Clouds:sky clear below 12,000 feet AGL
Text:EKRN 010950Z AUTO 16016KT 9999 NCD 14/10 Q1003
Temperature: 14.0°C ( 57°F)
Dewpoint: 10.0°C ( 50°F) [RH = 77%]
Pressure (altimeter):29.62 inches Hg (1003.0 mb)
Winds:from the SSE (160 degrees) at 18 MPH (16 knots; 8.2 m/s)
Visibility:6 or more sm (10+ km)
Ceiling:at least 12,000 feet AGL
Clouds:sky clear below 12,000 feet AGL
Text:EKRN 010920Z AUTO 17018KT 9999 NCD 14/10 Q1004
Temperature: 14.0°C ( 57°F)
Dewpoint: 10.0°C ( 50°F) [RH = 77%]
Pressure (altimeter):29.65 inches Hg (1004.0 mb)
Winds:from the S (170 degrees) at 21 MPH (18 knots; 9.3 m/s)
Visibility:6 or more sm (10+ km)
Ceiling:at least 12,000 feet AGL
Clouds:sky clear below 12,000 feet AGL
Text:EKRN 010850Z AUTO 17016KT 9999 NCD 14/09 Q1004
Temperature: 14.0°C ( 57°F)
Dewpoint: 9.0°C ( 48°F) [RH = 72%]
Pressure (altimeter):29.65 inches Hg (1004.0 mb)
Winds:from the S (170 degrees) at 18 MPH (16 knots; 8.2 m/s)
Visibility:6 or more sm (10+ km)
Ceiling:at least 12,000 feet AGL
Clouds:sky clear below 12,000 feet AGL
Text:EKRN 010820Z AUTO 17017KT 9999 SCT200/// 14/09 Q1004
Temperature: 14.0°C ( 57°F)
Dewpoint: 9.0°C ( 48°F) [RH = 72%]
Pressure (altimeter):29.65 inches Hg (1004.0 mb)
Winds:from the S (170 degrees) at 20 MPH (17 knots; 8.7 m/s)
Visibility:6 or more sm (10+ km)
Ceiling:at least 12,000 feet AGL
Clouds: scattered clouds at 20000 feet AGL
Text:EKRN 010750Z AUTO 17018KT 9999 FEW190/// 14/09 Q1005
Temperature: 14.0°C ( 57°F)
Dewpoint: 9.0°C ( 48°F) [RH = 72%]
Pressure (altimeter):29.68 inches Hg (1005.0 mb)
Winds:from the S (170 degrees) at 21 MPH (18 knots; 9.3 m/s)
Visibility:6 or more sm (10+ km)
Ceiling:at least 12,000 feet AGL
Clouds: few clouds at 19000 feet AGL
Text:EKRN 010720Z AUTO 18018KT 9999 NCD 14/10 Q1005
Temperature: 14.0°C ( 57°F)
Dewpoint: 10.0°C ( 50°F) [RH = 77%]
Pressure (altimeter):29.68 inches Hg (1005.0 mb)
Winds:from the S (180 degrees) at 21 MPH (18 knots; 9.3 m/s)
Visibility:6 or more sm (10+ km)
Ceiling:at least 12,000 feet AGL
Clouds:sky clear below 12,000 feet AGL
Text:EKRN 010650Z AUTO 17016KT 9999 NCD 13/09 Q1006
Temperature: 13.0°C ( 55°F)
Dewpoint: 9.0°C ( 48°F) [RH = 77%]
Pressure (altimeter):29.70 inches Hg (1006.0 mb)
Winds:from the S (170 degrees) at 18 MPH (16 knots; 8.2 m/s)
Visibility:6 or more sm (10+ km)
Ceiling:at least 12,000 feet AGL
Clouds:sky clear below 12,000 feet AGL
Text:EKRN 010620Z AUTO 18017KT 9999 FEW230/// 14/09 Q1006
Temperature: 14.0°C ( 57°F)
Dewpoint: 9.0°C ( 48°F) [RH = 72%]
Pressure (altimeter):29.70 inches Hg (1006.0 mb)
Winds:from the S (180 degrees) at 20 MPH (17 knots; 8.7 m/s)
Visibility:6 or more sm (10+ km)
Ceiling:at least 12,000 feet AGL
Clouds: few clouds at 23000 feet AGL
Text:EKRN 010550Z AUTO 17015KT 9999 NCD 13/09 Q1006
Temperature: 13.0°C ( 55°F)
Dewpoint: 9.0°C ( 48°F) [RH = 77%]
Pressure (altimeter):29.70 inches Hg (1006.0 mb)
Winds:from the S (170 degrees) at 17 MPH (15 knots; 7.7 m/s)
Visibility:6 or more sm (10+ km)
Ceiling:at least 12,000 feet AGL
Clouds:sky clear below 12,000 feet AGL
Text:EKRN 010520Z AUTO 18015KT 9999 NCD 13/09 Q1006
Temperature: 13.0°C ( 55°F)
Dewpoint: 9.0°C ( 48°F) [RH = 77%]
Pressure (altimeter):29.70 inches Hg (1006.0 mb)
Winds:from the S (180 degrees) at 17 MPH (15 knots; 7.7 m/s)
Visibility:6 or more sm (10+ km)
Ceiling:at least 12,000 feet AGL
Clouds:sky clear below 12,000 feet AGL
Text:EKRN 010450Z AUTO 17015KT 9999 NCD 13/10 Q1007
Temperature: 13.0°C ( 55°F)
Dewpoint: 10.0°C ( 50°F) [RH = 82%]
Pressure (altimeter):29.73 inches Hg (1007.0 mb)
Winds:from the S (170 degrees) at 17 MPH (15 knots; 7.7 m/s)
Visibility:6 or more sm (10+ km)
Ceiling:at least 12,000 feet AGL
Clouds:sky clear below 12,000 feet AGL
Text:EKRN 010420Z AUTO 18015KT 9999 NCD 13/10 Q1007
Temperature: 13.0°C ( 55°F)
Dewpoint: 10.0°C ( 50°F) [RH = 82%]
Pressure (altimeter):29.73 inches Hg (1007.0 mb)
Winds:from the S (180 degrees) at 17 MPH (15 knots; 7.7 m/s)
Visibility:6 or more sm (10+ km)
Ceiling:at least 12,000 feet AGL
Clouds:sky clear below 12,000 feet AGL
Text:EKRN 010350Z AUTO 18015KT 9999 NCD 13/09 Q1007
Temperature: 13.0°C ( 55°F)
Dewpoint: 9.0°C ( 48°F) [RH = 77%]
Pressure (altimeter):29.73 inches Hg (1007.0 mb)
Winds:from the S (180 degrees) at 17 MPH (15 knots; 7.7 m/s)
Visibility:6 or more sm (10+ km)
Ceiling:at least 12,000 feet AGL
Clouds:sky clear below 12,000 feet AGL
Text:EKRN 010320Z AUTO 18014KT 9999 NCD 13/09 Q1007
Temperature: 13.0°C ( 55°F)
Dewpoint: 9.0°C ( 48°F) [RH = 77%]
Pressure (altimeter):29.73 inches Hg (1007.0 mb)
Winds:from the S (180 degrees) at 16 MPH (14 knots; 7.2 m/s)
Visibility:6 or more sm (10+ km)
Ceiling:at least 12,000 feet AGL
Clouds:sky clear below 12,000 feet AGL
Text:EKRN 010250Z AUTO 18014KT 9999 NCD 13/09 Q1007
Temperature: 13.0°C ( 55°F)
Dewpoint: 9.0°C ( 48°F) [RH = 77%]
Pressure (altimeter):29.73 inches Hg (1007.0 mb)
Winds:from the S (180 degrees) at 16 MPH (14 knots; 7.2 m/s)
Visibility:6 or more sm (10+ km)
Ceiling:at least 12,000 feet AGL
Clouds:sky clear below 12,000 feet AGL
Text:EKRN 010220Z AUTO 18014KT 9999 NCD 14/10 Q1008
Temperature: 14.0°C ( 57°F)
Dewpoint: 10.0°C ( 50°F) [RH = 77%]
Pressure (altimeter):29.76 inches Hg (1008.0 mb)
Winds:from the S (180 degrees) at 16 MPH (14 knots; 7.2 m/s)
Visibility:6 or more sm (10+ km)
Ceiling:at least 12,000 feet AGL
Clouds:sky clear below 12,000 feet AGL
Text:EKRN 010150Z AUTO 18014KT 9999 NCD 14/09 Q1008
Temperature: 14.0°C ( 57°F)
Dewpoint: 9.0°C ( 48°F) [RH = 72%]
Pressure (altimeter):29.76 inches Hg (1008.0 mb)
Winds:from the S (180 degrees) at 16 MPH (14 knots; 7.2 m/s)
Visibility:6 or more sm (10+ km)
Ceiling:at least 12,000 feet AGL
Clouds:sky clear below 12,000 feet AGL
Text:EKRN 010120Z AUTO 18013KT 9999 NCD 14/10 Q1008
Temperature: 14.0°C ( 57°F)
Dewpoint: 10.0°C ( 50°F) [RH = 77%]
Pressure (altimeter):29.76 inches Hg (1008.0 mb)
Winds:from the S (180 degrees) at 15 MPH (13 knots; 6.7 m/s)
Visibility:6 or more sm (10+ km)
Ceiling:at least 12,000 feet AGL
Clouds:sky clear below 12,000 feet AGL
Text:EKRN 010050Z AUTO 18012KT 9999 NCD 14/09 Q1008
Temperature: 14.0°C ( 57°F)
Dewpoint: 9.0°C ( 48°F) [RH = 72%]
Pressure (altimeter):29.76 inches Hg (1008.0 mb)
Winds:from the S (180 degrees) at 14 MPH (12 knots; 6.2 m/s)
Visibility:6 or more sm (10+ km)
Ceiling:at least 12,000 feet AGL
Clouds:sky clear below 12,000 feet AGL
Text:EKRN 010020Z AUTO 18012KT 9999 NCD 14/10 Q1009
Temperature: 14.0°C ( 57°F)
Dewpoint: 10.0°C ( 50°F) [RH = 77%]
Pressure (altimeter):29.79 inches Hg (1009.0 mb)
Winds:from the S (180 degrees) at 14 MPH (12 knots; 6.2 m/s)
Visibility:6 or more sm (10+ km)
Ceiling:at least 12,000 feet AGL
Clouds:sky clear below 12,000 feet AGL
Text:EKRN 302350Z AUTO 19012KT 9999 NCD 14/09 Q1009
Temperature: 14.0°C ( 57°F)
Dewpoint: 9.0°C ( 48°F) [RH = 72%]
Pressure (altimeter):29.79 inches Hg (1009.0 mb)
Winds:from the S (190 degrees) at 14 MPH (12 knots; 6.2 m/s)
Visibility:6 or more sm (10+ km)
Ceiling:at least 12,000 feet AGL
Clouds:sky clear below 12,000 feet AGL
Text:EKRN 302320Z AUTO 19012KT 9999 NCD 14/09 Q1009
Temperature: 14.0°C ( 57°F)
Dewpoint: 9.0°C ( 48°F) [RH = 72%]
Pressure (altimeter):29.79 inches Hg (1009.0 mb)
Winds:from the S (190 degrees) at 14 MPH (12 knots; 6.2 m/s)
Visibility:6 or more sm (10+ km)
Ceiling:at least 12,000 feet AGL
Clouds:sky clear below 12,000 feet AGL
Text:EKRN 302250Z AUTO 19012KT 9999 NCD 14/10 Q1009
Temperature: 14.0°C ( 57°F)
Dewpoint: 10.0°C ( 50°F) [RH = 77%]
Pressure (altimeter):29.79 inches Hg (1009.0 mb)
Winds:from the S (190 degrees) at 14 MPH (12 knots; 6.2 m/s)
Visibility:6 or more sm (10+ km)
Ceiling:at least 12,000 feet AGL
Clouds:sky clear below 12,000 feet AGL
Text:EKRN 302220Z AUTO 19012KT 9999 NCD 14/10 Q1010
Temperature: 14.0°C ( 57°F)
Dewpoint: 10.0°C ( 50°F) [RH = 77%]
Pressure (altimeter):29.82 inches Hg (1010.0 mb)
Winds:from the S (190 degrees) at 14 MPH (12 knots; 6.2 m/s)
Visibility:6 or more sm (10+ km)
Ceiling:at least 12,000 feet AGL
Clouds:sky clear below 12,000 feet AGL
Text:EKRN 302150Z AUTO 19013KT 9999 NCD 14/09 Q1010
Temperature: 14.0°C ( 57°F)
Dewpoint: 9.0°C ( 48°F) [RH = 72%]
Pressure (altimeter):29.82 inches Hg (1010.0 mb)
Winds:from the S (190 degrees) at 15 MPH (13 knots; 6.7 m/s)
Visibility:6 or more sm (10+ km)
Ceiling:at least 12,000 feet AGL
Clouds:sky clear below 12,000 feet AGL
Text:EKRN 302120Z AUTO 19013KT 9999 FEW062/// 14/09 Q1010
Temperature: 14.0°C ( 57°F)
Dewpoint: 9.0°C ( 48°F) [RH = 72%]
Pressure (altimeter):29.82 inches Hg (1010.0 mb)
Winds:from the S (190 degrees) at 15 MPH (13 knots; 6.7 m/s)
Visibility:6 or more sm (10+ km)
Ceiling:at least 12,000 feet AGL
Clouds: few clouds at 6200 feet AGL
Text:EKRN 302050Z AUTO 19014KT 9999 NCD 14/08 Q1010
Temperature: 14.0°C ( 57°F)
Dewpoint: 8.0°C ( 46°F) [RH = 67%]
Pressure (altimeter):29.82 inches Hg (1010.0 mb)
Winds:from the S (190 degrees) at 16 MPH (14 knots; 7.2 m/s)
Visibility:6 or more sm (10+ km)
Ceiling:at least 12,000 feet AGL
Clouds:sky clear below 12,000 feet AGL
Text:EKRN 302020Z AUTO 18014KT 9999 NCD 14/08 Q1010
Temperature: 14.0°C ( 57°F)
Dewpoint: 8.0°C ( 46°F) [RH = 67%]
Pressure (altimeter):29.82 inches Hg (1010.0 mb)
Winds:from the S (180 degrees) at 16 MPH (14 knots; 7.2 m/s)
Visibility:6 or more sm (10+ km)
Ceiling:at least 12,000 feet AGL
Clouds:sky clear below 12,000 feet AGL
Text:EKRN 301950Z AUTO 18015KT 9999 NCD 14/09 Q1010
Temperature: 14.0°C ( 57°F)
Dewpoint: 9.0°C ( 48°F) [RH = 72%]
Pressure (altimeter):29.82 inches Hg (1010.0 mb)
Winds:from the S (180 degrees) at 17 MPH (15 knots; 7.7 m/s)
Visibility:6 or more sm (10+ km)
Ceiling:at least 12,000 feet AGL
Clouds:sky clear below 12,000 feet AGL
Text:EKRN 301920Z AUTO 18016KT 9999 FEW073/// 14/08 Q1010
Temperature: 14.0°C ( 57°F)
Dewpoint: 8.0°C ( 46°F) [RH = 67%]
Pressure (altimeter):29.82 inches Hg (1010.0 mb)
Winds:from the S (180 degrees) at 18 MPH (16 knots; 8.2 m/s)
Visibility:6 or more sm (10+ km)
Ceiling:at least 12,000 feet AGL
Clouds: few clouds at 7300 feet AGL
Text:EKRN 301850Z AUTO 17014KT 9999 SCT071/// 14/08 Q1010
Temperature: 14.0°C ( 57°F)
Dewpoint: 8.0°C ( 46°F) [RH = 67%]
Pressure (altimeter):29.82 inches Hg (1010.0 mb)
Winds:from the S (170 degrees) at 16 MPH (14 knots; 7.2 m/s)
Visibility:6 or more sm (10+ km)
Ceiling:at least 12,000 feet AGL
Clouds: scattered clouds at 7100 feet AGL
Text:EKRN 301820Z AUTO 17014KT 9999 OVC064/// 14/08 Q1010
Temperature: 14.0°C ( 57°F)
Dewpoint: 8.0°C ( 46°F) [RH = 67%]
Pressure (altimeter):29.82 inches Hg (1010.0 mb)
Winds:from the S (170 degrees) at 16 MPH (14 knots; 7.2 m/s)
Visibility:6 or more sm (10+ km)
Ceiling:6400 feet AGL
Clouds: overcast cloud deck at 6400 feet AGL
Text:EKRN 301750Z AUTO 17014KT 9999 BKN056/// 14/07 Q1010
Temperature: 14.0°C ( 57°F)
Dewpoint: 7.0°C ( 45°F) [RH = 63%]
Pressure (altimeter):29.82 inches Hg (1010.0 mb)
Winds:from the S (170 degrees) at 16 MPH (14 knots; 7.2 m/s)
Visibility:6 or more sm (10+ km)
Ceiling:5600 feet AGL
Clouds: broken clouds at 5600 feet AGL
Text:EKRN 301720Z AUTO 18014KT 9999 BKN056/// 14/08 Q1010
Temperature: 14.0°C ( 57°F)
Dewpoint: 8.0°C ( 46°F) [RH = 67%]
Pressure (altimeter):29.82 inches Hg (1010.0 mb)
Winds:from the S (180 degrees) at 16 MPH (14 knots; 7.2 m/s)
Visibility:6 or more sm (10+ km)
Ceiling:5600 feet AGL
Clouds: broken clouds at 5600 feet AGL
Text:EKRN 301650Z AUTO 17013KT 9999 BKN062/// 14/08 Q1010
Temperature: 14.0°C ( 57°F)
Dewpoint: 8.0°C ( 46°F) [RH = 67%]
Pressure (altimeter):29.82 inches Hg (1010.0 mb)
Winds:from the S (170 degrees) at 15 MPH (13 knots; 6.7 m/s)
Visibility:6 or more sm (10+ km)
Ceiling:6200 feet AGL
Clouds: broken clouds at 6200 feet AGL
Text:EKRN 301620Z AUTO 17013KT 9999 BKN063/// 14/08 Q1011
Temperature: 14.0°C ( 57°F)
Dewpoint: 8.0°C ( 46°F) [RH = 67%]
Pressure (altimeter):29.85 inches Hg (1011.0 mb)
Winds:from the S (170 degrees) at 15 MPH (13 knots; 6.7 m/s)
Visibility:6 or more sm (10+ km)
Ceiling:6300 feet AGL
Clouds: broken clouds at 6300 feet AGL
Text:EKRN 301550Z AUTO 18013KT 9999 NCD 14/07 Q1011
Temperature: 14.0°C ( 57°F)
Dewpoint: 7.0°C ( 45°F) [RH = 63%]
Pressure (altimeter):29.85 inches Hg (1011.0 mb)
Winds:from the S (180 degrees) at 15 MPH (13 knots; 6.7 m/s)
Visibility:6 or more sm (10+ km)
Ceiling:at least 12,000 feet AGL
Clouds:sky clear below 12,000 feet AGL
Text:EKRN 301520Z AUTO 18012KT 9999 NCD 14/07 Q1011
Temperature: 14.0°C ( 57°F)
Dewpoint: 7.0°C ( 45°F) [RH = 63%]
Pressure (altimeter):29.85 inches Hg (1011.0 mb)
Winds:from the S (180 degrees) at 14 MPH (12 knots; 6.2 m/s)
Visibility:6 or more sm (10+ km)
Ceiling:at least 12,000 feet AGL
Clouds:sky clear below 12,000 feet AGL
Text:EKRN 301450Z AUTO 18012KT 9999 NCD 14/07 Q1010
Temperature: 14.0°C ( 57°F)
Dewpoint: 7.0°C ( 45°F) [RH = 63%]
Pressure (altimeter):29.82 inches Hg (1010.0 mb)
Winds:from the S (180 degrees) at 14 MPH (12 knots; 6.2 m/s)
Visibility:6 or more sm (10+ km)
Ceiling:at least 12,000 feet AGL
Clouds:sky clear below 12,000 feet AGL
Text:EKRN 301420Z AUTO 18012KT 9999 NCD 14/08 Q1011
Temperature: 14.0°C ( 57°F)
Dewpoint: 8.0°C ( 46°F) [RH = 67%]
Pressure (altimeter):29.85 inches Hg (1011.0 mb)
Winds:from the S (180 degrees) at 14 MPH (12 knots; 6.2 m/s)
Visibility:6 or more sm (10+ km)
Ceiling:at least 12,000 feet AGL
Clouds:sky clear below 12,000 feet AGL
Text:EKRN 301350Z AUTO 18011KT 9999 NCD 15/07 Q1011
Temperature: 15.0°C ( 59°F)
Dewpoint: 7.0°C ( 45°F) [RH = 59%]
Pressure (altimeter):29.85 inches Hg (1011.0 mb)
Winds:from the S (180 degrees) at 13 MPH (11 knots; 5.7 m/s)
Visibility:6 or more sm (10+ km)
Ceiling:at least 12,000 feet AGL
Clouds:sky clear below 12,000 feet AGL
Text:EKRN 301320Z AUTO 18011KT 9999 FEW073/// 15/07 Q1011
Temperature: 15.0°C ( 59°F)
Dewpoint: 7.0°C ( 45°F) [RH = 59%]
Pressure (altimeter):29.85 inches Hg (1011.0 mb)
Winds:from the S (180 degrees) at 13 MPH (11 knots; 5.7 m/s)
Visibility:6 or more sm (10+ km)
Ceiling:at least 12,000 feet AGL
Clouds: few clouds at 7300 feet AGL
Text:EKRN 301250Z AUTO 19012KT 9999 NCD 15/07 Q1011
Temperature: 15.0°C ( 59°F)
Dewpoint: 7.0°C ( 45°F) [RH = 59%]
Pressure (altimeter):29.85 inches Hg (1011.0 mb)
Winds:from the S (190 degrees) at 14 MPH (12 knots; 6.2 m/s)
Visibility:6 or more sm (10+ km)
Ceiling:at least 12,000 feet AGL
Clouds:sky clear below 12,000 feet AGL
Text:EKRN 301220Z AUTO 18015KT 9999 NCD 15/07 Q1011
Temperature: 15.0°C ( 59°F)
Dewpoint: 7.0°C ( 45°F) [RH = 59%]
Pressure (altimeter):29.85 inches Hg (1011.0 mb)
Winds:from the S (180 degrees) at 17 MPH (15 knots; 7.7 m/s)
Visibility:6 or more sm (10+ km)
Ceiling:at least 12,000 feet AGL
Clouds:sky clear below 12,000 feet AGL
Text:EKRN 301150Z AUTO 18014KT 9999 NCD 15/08 Q1011
Temperature: 15.0°C ( 59°F)
Dewpoint: 8.0°C ( 46°F) [RH = 63%]
Pressure (altimeter):29.85 inches Hg (1011.0 mb)
Winds:from the S (180 degrees) at 16 MPH (14 knots; 7.2 m/s)
Visibility:6 or more sm (10+ km)
Ceiling:at least 12,000 feet AGL
Clouds:sky clear below 12,000 feet AGL
Text:EKRN 301120Z AUTO 18014KT 9999 FEW071/// 14/08 Q1011
Temperature: 14.0°C ( 57°F)
Dewpoint: 8.0°C ( 46°F) [RH = 67%]
Pressure (altimeter):29.85 inches Hg (1011.0 mb)
Winds:from the S (180 degrees) at 16 MPH (14 knots; 7.2 m/s)
Visibility:6 or more sm (10+ km)
Ceiling:at least 12,000 feet AGL
Clouds: few clouds at 7100 feet AGL
Text:EKRN 301050Z AUTO 18013KT 9999 BKN071/// 15/08 Q1011
Temperature: 15.0°C ( 59°F)
Dewpoint: 8.0°C ( 46°F) [RH = 63%]
Pressure (altimeter):29.85 inches Hg (1011.0 mb)
Winds:from the S (180 degrees) at 15 MPH (13 knots; 6.7 m/s)
Visibility:6 or more sm (10+ km)
Ceiling:7100 feet AGL
Clouds: broken clouds at 7100 feet AGL
Text:EKRN 301020Z AUTO 18011KT 9999 BKN070/// 15/08 Q1011
Temperature: 15.0°C ( 59°F)
Dewpoint: 8.0°C ( 46°F) [RH = 63%]
Pressure (altimeter):29.85 inches Hg (1011.0 mb)
Winds:from the S (180 degrees) at 13 MPH (11 knots; 5.7 m/s)
Visibility:6 or more sm (10+ km)
Ceiling:7000 feet AGL
Clouds: broken clouds at 7000 feet AGL
Text:EKRN 300950Z AUTO 19011KT 9999 NCD 14/08 Q1011
Temperature: 14.0°C ( 57°F)
Dewpoint: 8.0°C ( 46°F) [RH = 67%]
Pressure (altimeter):29.85 inches Hg (1011.0 mb)
Winds:from the S (190 degrees) at 13 MPH (11 knots; 5.7 m/s)
Visibility:6 or more sm (10+ km)
Ceiling:at least 12,000 feet AGL
Clouds:sky clear below 12,000 feet AGL
Text:EKRN 300920Z AUTO 18009KT 9999 NCD 14/07 Q1011
Temperature: 14.0°C ( 57°F)
Dewpoint: 7.0°C ( 45°F) [RH = 63%]
Pressure (altimeter):29.85 inches Hg (1011.0 mb)
Winds:from the S (180 degrees) at 10 MPH (9 knots; 4.6 m/s)
Visibility:6 or more sm (10+ km)
Ceiling:at least 12,000 feet AGL
Clouds:sky clear below 12,000 feet AGL
Text:EKRN 300850Z AUTO 18009KT 9999 FEW016/// 14/09 Q1011
Temperature: 14.0°C ( 57°F)
Dewpoint: 9.0°C ( 48°F) [RH = 72%]
Pressure (altimeter):29.85 inches Hg (1011.0 mb)
Winds:from the S (180 degrees) at 10 MPH (9 knots; 4.6 m/s)
Visibility:6 or more sm (10+ km)
Ceiling:at least 12,000 feet AGL
Clouds: few clouds at 1600 feet AGL

TAF for:EKRN (Ronne/Bornholm Arpt, HO, DK) issued at 2007 UTC 01 Oct 2022
Text:TAF EKRN 012007Z 0121/0206 28018KT 9999 BKN020
Forecast period:2100 UTC 01 October 2022 to 0600 UTC 02 October 2022
Forecast type:FROM: standard forecast or significant change
Winds:from the W (280 degrees) at 21 MPH (18 knots; 9.3 m/s)
Visibility:6 or more sm (10+ km)
Ceiling:2000 feet AGL
Clouds: broken clouds at 2000 feet AGL
Text:TEMPO 0121/0206 29018G28KT 3000 SHRA SCT012 BKN020CB
Forecast period:2100 UTC 01 October 2022 to 0600 UTC 02 October 2022
Forecast type:TEMPORARY: The following changes expected for less than half the time period
Winds:from the WNW (290 degrees) at 21 MPH (18 knots; 9.3 m/s) gusting to 32 MPH (28 knots; 14.4 m/s)
Visibility: 1.86 sm ( 2.99 km)
Ceiling:2000 feet AGL
Clouds: scattered clouds at 1200 feet AGL, broken clouds at 2000 feet AGL
Weather:SHRA (rain showers)